createdAt,value
2022-10-19T00:00:30.599Z,100509.94
2022-10-19T00:01:20.397Z,100510.50
2022-10-19T00:02:08.211Z,100506.25
2022-10-19T00:02:55.089Z,100508.84
2022-10-19T00:03:42.914Z,100511.91
2022-10-19T00:04:30.079Z,100507.50
2022-10-19T00:05:17.364Z,100502.28
2022-10-19T00:06:17.749Z,100513.09
2022-10-19T00:07:04.680Z,100511.09
2022-10-19T00:07:51.621Z,100511.81
2022-10-19T00:08:38.653Z,100504.91
2022-10-19T00:09:25.560Z,100505.91
2022-10-19T00:10:12.651Z,100511.31
2022-10-19T00:11:01.750Z,100513.50
2022-10-19T00:11:50.511Z,100521.00
2022-10-19T00:12:37.829Z,100521.69
2022-10-19T00:13:24.890Z,100522.72
2022-10-19T00:14:17.121Z,100515.78
2022-10-19T00:15:05.670Z,100528.47
2022-10-19T00:15:52.620Z,100520.69
2022-10-19T00:16:39.665Z,100520.88
2022-10-19T00:17:26.841Z,100515.78
2022-10-19T00:18:13.738Z,100516.97
2022-10-19T00:19:02.386Z,100519.47
2022-10-19T00:19:49.400Z,100525.63
2022-10-19T00:20:37.152Z,100514.44
2022-10-19T00:21:24.231Z,100516.59
2022-10-19T00:22:13.183Z,100518.13
2022-10-19T00:23:01.041Z,100522.81
2022-10-19T00:23:48.861Z,100523.84
2022-10-19T00:24:35.810Z,100525.37
2022-10-19T00:25:22.690Z,100526.06
2022-10-19T00:26:10.025Z,100518.78
2022-10-19T00:26:56.879Z,100519.78
2022-10-19T00:27:44.059Z,100516.28
2022-10-19T00:28:31.511Z,100518.47
2022-10-19T00:29:18.490Z,100520.00
2022-10-19T00:30:06.139Z,100522.25
2022-10-19T00:30:53.182Z,100510.06
2022-10-19T00:31:40.761Z,100507.19
2022-10-19T00:32:27.871Z,100509.03
2022-10-19T00:33:14.865Z,100518.44
2022-10-19T00:34:01.961Z,100511.53
2022-10-19T00:34:48.950Z,100510.50
2022-10-19T00:35:40.769Z,100514.03
2022-10-19T00:36:28.967Z,100519.97
2022-10-19T00:37:15.899Z,100519.97
2022-10-19T00:38:02.871Z,100508.50
2022-10-19T00:38:49.860Z,100521.34
2022-10-19T00:39:36.825Z,100517.97
2022-10-19T00:40:23.782Z,100515.94
2022-10-19T00:41:10.832Z,100514.06
2022-10-19T00:41:57.690Z,100510.06
2022-10-19T00:42:44.740Z,100514.44
2022-10-19T00:43:31.840Z,100505.78
2022-10-19T00:44:19.199Z,100502.91
2022-10-19T00:45:15.572Z,100503.44
2022-10-19T00:46:02.490Z,100507.34
2022-10-19T00:46:49.489Z,100509.03
2022-10-19T00:47:36.461Z,100498.34
2022-10-19T00:48:26.964Z,100508.16
2022-10-19T00:49:23.906Z,100501.03
2022-10-19T00:50:11.418Z,100499.53
2022-10-19T00:51:00.420Z,100501.22
2022-10-19T00:51:51.910Z,100503.75
2022-10-19T00:52:38.843Z,100507.63
2022-10-19T00:53:29.342Z,100511.16
2022-10-19T00:54:16.418Z,100505.41
2022-10-19T00:55:03.875Z,100506.78
2022-10-19T00:55:50.950Z,100507.13
2022-10-19T00:56:41.669Z,100518.13
2022-10-19T00:57:30.889Z,100511.19
2022-10-19T00:58:17.900Z,100513.06
2022-10-19T00:59:05.761Z,100505.63
2022-10-19T00:59:52.711Z,100502.91
2022-10-19T01:00:39.916Z,100508.31
2022-10-19T01:01:27.985Z,100509.84
2022-10-19T01:02:14.842Z,100509.16
2022-10-19T01:03:01.913Z,100505.09
2022-10-19T01:03:49.240Z,100499.16
2022-10-19T01:04:38.894Z,100499.16
2022-10-19T01:05:26.806Z,100516.28
2022-10-19T01:06:15.308Z,100509.31
2022-10-19T01:07:04.273Z,100508.19
2022-10-19T01:07:51.330Z,100498.03
2022-10-19T01:08:38.330Z,100510.53
2022-10-19T01:09:25.153Z,100516.59
2022-10-19T01:10:12.580Z,100512.41
2022-10-19T01:11:37.832Z,100508.88
2022-10-19T01:12:58.999Z,100513.25
2022-10-19T01:14:00.075Z,100506.31
2022-10-19T01:14:49.443Z,100507.50
2022-10-19T01:17:04.800Z,100505.78
2022-10-19T01:18:25.460Z,100511.03
2022-10-19T01:19:49.860Z,100507.97
2022-10-19T01:20:52.349Z,100511.34
2022-10-19T01:21:48.116Z,100523.34
2022-10-19T01:23:11.861Z,100510.09
2022-10-19T01:24:18.229Z,100516.50
2022-10-19T01:25:31.052Z,100511.56
2022-10-19T01:26:52.581Z,100509.50
2022-10-19T01:27:46.751Z,100500.53
2022-10-19T01:28:45.187Z,100507.97
2022-10-19T01:29:56.861Z,100497.13
2022-10-19T01:30:56.070Z,100497.47
2022-10-19T01:32:00.671Z,100504.41
2022-10-19T01:33:04.193Z,100499.00
2022-10-19T01:34:10.999Z,100497.97
2022-10-19T01:35:31.049Z,100500.78
2022-10-19T01:36:24.209Z,100503.34
2022-10-19T01:37:22.791Z,100501.25
2022-10-19T01:38:25.657Z,100494.44
2022-10-19T01:39:25.610Z,100498.59
2022-10-19T01:40:40.090Z,100496.34
2022-10-19T01:42:04.509Z,100497.69
2022-10-19T01:43:04.749Z,100502.88
2022-10-19T01:44:01.662Z,100498.78
2022-10-19T01:44:58.880Z,100500.75
2022-10-19T01:45:48.129Z,100496.66
2022-10-19T01:46:39.289Z,100502.38
2022-10-19T01:47:44.191Z,100498.94
2022-10-19T01:48:35.260Z,100498.37
2022-10-19T01:49:40.430Z,100498.16
2022-10-19T01:50:40.181Z,100501.53
2022-10-19T01:51:31.279Z,100498.44
2022-10-19T01:52:20.016Z,100496.56
2022-10-19T01:53:08.462Z,100495.72
2022-10-19T01:53:58.441Z,100496.38
2022-10-19T01:54:49.758Z,100494.16
2022-10-19T01:55:41.051Z,100499.69
2022-10-19T01:56:28.620Z,100496.75
2022-10-19T01:57:23.156Z,100497.16
2022-10-19T01:58:13.790Z,100500.34
2022-10-19T01:59:04.091Z,100501.66
2022-10-19T01:59:51.902Z,100508.56
2022-10-19T02:00:41.457Z,100505.28
2022-10-19T02:01:31.053Z,100513.03
2022-10-19T02:02:18.952Z,100514.56
2022-10-19T02:03:06.933Z,100507.28
2022-10-19T02:03:54.550Z,100516.91
2022-10-19T02:04:41.809Z,100511.13
2022-10-19T02:05:32.460Z,100514.00
2022-10-19T02:06:19.999Z,100510.06
2022-10-19T02:07:07.700Z,100504.66
2022-10-19T02:08:01.468Z,100500.72
2022-10-19T02:08:50.990Z,100502.41
2022-10-19T02:09:37.979Z,100506.62
2022-10-19T02:10:25.361Z,100500.81
2022-10-19T02:11:12.451Z,100497.72
2022-10-19T02:12:02.508Z,100507.53
2022-10-19T02:12:49.660Z,100504.66
2022-10-19T02:13:37.469Z,100503.59
2022-10-19T02:14:29.063Z,100499.88
2022-10-19T02:15:20.969Z,100495.09
2022-10-19T02:16:13.169Z,100495.59
2022-10-19T02:17:04.019Z,100502.50
2022-10-19T02:17:53.550Z,100496.88
2022-10-19T02:18:45.341Z,100495.84
2022-10-19T02:19:32.371Z,100503.16
2022-10-19T02:20:20.771Z,100496.88
2022-10-19T02:21:08.190Z,100500.53
2022-10-19T02:21:55.180Z,100505.75
2022-10-19T02:22:42.622Z,100502.56
2022-10-19T02:23:29.670Z,100501.75
2022-10-19T02:24:16.520Z,100495.94
2022-10-19T02:25:03.843Z,100501.16
2022-10-19T02:25:50.899Z,100500.59
2022-10-19T02:26:38.480Z,100496.41
2022-10-19T02:27:25.460Z,100503.69
2022-10-19T02:28:12.629Z,100500.34
2022-10-19T02:28:59.770Z,100500.34
2022-10-19T02:29:46.871Z,100505.37
2022-10-19T02:30:34.012Z,100499.75
2022-10-19T02:31:21.229Z,100501.44
2022-10-19T02:32:10.550Z,100503.78
2022-10-19T02:32:57.491Z,100500.03
2022-10-19T02:33:44.690Z,100497.31
2022-10-19T02:34:31.850Z,100503.38
2022-10-19T02:35:18.779Z,100505.53
2022-10-19T02:36:06.033Z,100506.84
2022-10-19T02:36:53.080Z,100514.81
2022-10-19T02:37:40.631Z,100505.59
2022-10-19T02:38:27.849Z,100505.81
2022-10-19T02:39:14.818Z,100497.69
2022-10-19T02:40:01.802Z,100504.19
2022-10-19T02:41:07.386Z,100500.34
2022-10-19T02:42:18.736Z,100499.97
2022-10-19T02:43:10.822Z,100497.00
2022-10-19T02:44:01.770Z,100501.78
2022-10-19T02:44:53.851Z,100503.62
2022-10-19T02:45:48.960Z,100507.00
2022-10-19T02:46:44.847Z,100502.59
2022-10-19T02:47:36.226Z,100503.84
2022-10-19T02:48:25.230Z,100501.94
2022-10-19T02:49:12.839Z,100501.56
2022-10-19T02:49:59.763Z,100498.84
2022-10-19T02:50:50.170Z,100507.19
2022-10-19T02:51:39.580Z,100501.78
2022-10-19T02:52:26.552Z,100506.53
2022-10-19T02:53:14.283Z,100504.91
2022-10-19T02:54:04.257Z,100502.50
2022-10-19T02:54:52.280Z,100506.50
2022-10-19T02:55:42.280Z,100509.22
2022-10-19T02:56:29.390Z,100509.22
2022-10-19T02:57:23.129Z,100505.94
2022-10-19T02:58:10.385Z,100499.66
2022-10-19T02:58:57.446Z,100497.59
2022-10-19T02:59:44.498Z,100493.00
2022-10-19T03:00:31.550Z,100503.47
2022-10-19T03:01:18.567Z,100502.72
2022-10-19T03:02:05.538Z,100506.56
2022-10-19T03:02:52.493Z,100502.19
2022-10-19T03:03:39.349Z,100503.84
2022-10-19T03:04:26.309Z,100498.41
2022-10-19T03:05:13.270Z,100507.97
2022-10-19T03:06:00.183Z,100497.56
2022-10-19T03:06:47.131Z,100501.78
2022-10-19T03:07:34.253Z,100504.91
2022-10-19T03:08:21.320Z,100508.88
2022-10-19T03:09:08.621Z,100502.03
2022-10-19T03:09:55.564Z,100507.63
2022-10-19T03:10:42.630Z,100507.63
2022-10-19T03:11:29.509Z,100502.94
2022-10-19T03:12:16.520Z,100506.31
2022-10-19T03:13:03.539Z,100506.56
2022-10-19T03:13:50.444Z,100511.34
2022-10-19T03:14:37.365Z,100510.94
2022-10-19T03:15:27.491Z,100516.13
2022-10-19T03:16:14.620Z,100520.09
2022-10-19T03:17:01.552Z,100515.00
2022-10-19T03:17:48.491Z,100512.19
2022-10-19T03:18:35.498Z,100518.44
2022-10-19T03:19:22.420Z,100521.25
2022-10-19T03:20:10.708Z,100519.56
2022-10-19T03:21:05.711Z,100514.31
2022-10-19T03:21:52.641Z,100523.31
2022-10-19T03:22:39.526Z,100525.19
2022-10-19T03:23:26.450Z,100529.78
2022-10-19T03:24:13.391Z,100522.34
2022-10-19T03:25:00.360Z,100525.31
2022-10-19T03:25:47.241Z,100520.72
2022-10-19T03:26:34.250Z,100530.16
2022-10-19T03:27:21.329Z,100528.03
2022-10-19T03:28:08.249Z,100529.06
2022-10-19T03:28:55.223Z,100523.91
2022-10-19T03:29:42.150Z,100527.22
2022-10-19T03:30:29.170Z,100527.31
2022-10-19T03:31:16.000Z,100529.56
2022-10-19T03:32:03.083Z,100529.13
2022-10-19T03:32:50.059Z,100528.53
2022-10-19T03:33:37.072Z,100531.47
2022-10-19T03:34:24.011Z,100534.19
2022-10-19T03:35:10.931Z,100527.88
2022-10-19T03:36:16.391Z,100528.94
2022-10-19T03:37:03.407Z,100532.28
2022-10-19T03:37:50.320Z,100528.94
2022-10-19T03:38:37.191Z,100533.97
2022-10-19T03:39:24.141Z,100534.41
2022-10-19T03:40:11.211Z,100534.41
2022-10-19T03:40:58.181Z,100532.09
2022-10-19T03:41:45.509Z,100530.88
2022-10-19T03:42:32.579Z,100532.09
2022-10-19T03:43:19.509Z,100533.13
2022-10-19T03:44:07.472Z,100528.53
2022-10-19T03:44:54.358Z,100534.97
2022-10-19T03:45:41.270Z,100531.31
2022-10-19T03:46:28.230Z,100533.97
2022-10-19T03:47:15.301Z,100542.97
2022-10-19T03:48:02.330Z,100533.97
2022-10-19T03:48:49.728Z,100531.47
2022-10-19T03:49:38.120Z,100528.78
2022-10-19T03:50:27.030Z,100534.22
2022-10-19T03:51:16.129Z,100529.38
2022-10-19T03:52:03.130Z,100537.78
2022-10-19T03:52:50.346Z,100532.75
2022-10-19T03:53:37.910Z,100528.16
2022-10-19T03:54:27.300Z,100535.84
2022-10-19T03:55:16.302Z,100535.59
2022-10-19T03:56:09.171Z,100534.78
2022-10-19T03:56:56.039Z,100527.81
2022-10-19T03:57:43.030Z,100530.75
2022-10-19T03:58:29.980Z,100533.03
2022-10-19T03:59:17.131Z,100532.81
2022-10-19T04:00:08.429Z,100529.91
2022-10-19T04:00:55.484Z,100538.41
2022-10-19T04:01:45.122Z,100535.97
2022-10-19T04:02:32.180Z,100529.06
2022-10-19T04:03:19.129Z,100535.28
2022-10-19T04:04:10.690Z,100534.44
2022-10-19T04:04:57.670Z,100536.75
2022-10-19T04:05:44.668Z,100528.59
2022-10-19T04:06:33.833Z,100531.13
2022-10-19T04:07:20.774Z,100532.31
2022-10-19T04:08:07.785Z,100534.09
2022-10-19T04:08:55.180Z,100535.31
2022-10-19T04:09:42.090Z,100530.72
2022-10-19T04:10:31.545Z,100536.53
2022-10-19T04:11:21.200Z,100536.53
2022-10-19T04:12:08.060Z,100536.81
2022-10-19T04:12:54.980Z,100535.16
2022-10-19T04:13:42.039Z,100529.47
2022-10-19T04:14:32.508Z,100535.66
2022-10-19T04:15:19.860Z,100539.38
2022-10-19T04:16:07.718Z,100539.22
2022-10-19T04:16:54.780Z,100538.31
2022-10-19T04:17:43.132Z,100538.41
2022-10-19T04:18:31.771Z,100543.28
2022-10-19T04:19:18.711Z,100530.94
2022-10-19T04:20:06.282Z,100547.97
2022-10-19T04:20:59.950Z,100542.25
2022-10-19T04:21:49.154Z,100536.81
2022-10-19T04:22:36.021Z,100539.53
2022-10-19T04:23:22.941Z,100542.44
2022-10-19T04:24:14.901Z,100540.47
2022-10-19T04:25:01.862Z,100546.47
2022-10-19T04:25:48.741Z,100546.66
2022-10-19T04:26:40.750Z,100542.44
2022-10-19T04:27:27.732Z,100541.22
2022-10-19T04:28:14.649Z,100544.50
2022-10-19T04:29:02.285Z,100542.72
2022-10-19T04:29:49.180Z,100542.25
2022-10-19T04:30:36.169Z,100548.69
2022-10-19T04:31:23.061Z,100547.88
2022-10-19T04:32:09.950Z,100553.84
2022-10-19T04:32:56.999Z,100550.28
2022-10-19T04:33:43.970Z,100547.28
2022-10-19T04:34:30.844Z,100548.13
2022-10-19T04:35:17.739Z,100552.72
2022-10-19T04:36:07.152Z,100550.34
2022-10-19T04:36:54.200Z,100542.34
2022-10-19T04:37:41.089Z,100549.72
2022-10-19T04:38:29.199Z,100546.53
2022-10-19T04:39:16.200Z,100544.16
2022-10-19T04:40:04.100Z,100540.53
2022-10-19T04:40:51.130Z,100539.88
2022-10-19T04:41:38.900Z,100547.16
2022-10-19T04:42:25.769Z,100539.59
2022-10-19T04:43:12.734Z,100541.81
2022-10-19T04:44:01.501Z,100539.28
2022-10-19T04:44:48.382Z,100539.81
2022-10-19T04:45:35.991Z,100540.34
2022-10-19T04:46:22.921Z,100549.16
2022-10-19T04:47:09.761Z,100546.16
2022-10-19T04:47:59.730Z,100548.87
2022-10-19T04:48:48.049Z,100548.00
2022-10-19T04:49:35.000Z,100549.69
2022-10-19T04:50:22.004Z,100550.25
2022-10-19T04:51:10.030Z,100550.78
2022-10-19T04:51:56.910Z,100553.84
2022-10-19T04:52:45.469Z,100555.06
2022-10-19T04:53:33.384Z,100551.88
2022-10-19T04:54:20.321Z,100552.91
2022-10-19T04:55:07.551Z,100555.13
2022-10-19T04:55:54.510Z,100559.03
2022-10-19T04:56:41.491Z,100550.41
2022-10-19T04:57:28.439Z,100554.63
2022-10-19T04:58:15.471Z,100559.22
2022-10-19T04:59:02.489Z,100561.75
2022-10-19T04:59:49.530Z,100559.59
2022-10-19T05:00:38.793Z,100551.63
2022-10-19T05:01:27.669Z,100557.59
2022-10-19T05:02:14.550Z,100550.47
2022-10-19T05:03:01.528Z,100545.59
2022-10-19T05:03:48.927Z,100553.09
2022-10-19T05:04:35.849Z,100551.06
2022-10-19T05:05:24.539Z,100558.34
2022-10-19T05:06:12.510Z,100552.28
2022-10-19T05:06:59.460Z,100557.19
2022-10-19T05:07:49.225Z,100557.41
2022-10-19T05:08:37.238Z,100559.22
2022-10-19T05:09:24.393Z,100564.31
2022-10-19T05:10:14.131Z,100560.94
2022-10-19T05:11:06.303Z,100554.53
2022-10-19T05:11:53.233Z,100558.28
2022-10-19T05:12:40.170Z,100553.91
2022-10-19T05:13:26.989Z,100555.28
2022-10-19T05:14:13.985Z,100555.69
2022-10-19T05:15:00.990Z,100565.03
2022-10-19T05:15:58.133Z,100560.84
2022-10-19T05:16:45.222Z,100560.72
2022-10-19T05:17:33.279Z,100563.59
2022-10-19T05:18:20.332Z,100565.94
2022-10-19T05:19:07.360Z,100567.50
2022-10-19T05:19:54.340Z,100559.22
2022-10-19T05:20:41.211Z,100564.62
2022-10-19T05:21:29.160Z,100562.75
2022-10-19T05:22:16.105Z,100571.88
2022-10-19T05:23:06.320Z,100562.37
2022-10-19T05:23:55.344Z,100570.19
2022-10-19T05:24:42.280Z,100574.88
2022-10-19T05:25:29.220Z,100571.50
2022-10-19T05:26:18.320Z,100569.63
2022-10-19T05:27:05.222Z,100572.50
2022-10-19T05:27:53.310Z,100573.72
2022-10-19T05:28:40.547Z,100565.72
2022-10-19T05:29:28.551Z,100569.78
2022-10-19T05:30:15.640Z,100573.00
2022-10-19T05:31:11.562Z,100569.47
2022-10-19T05:31:58.511Z,100571.97
2022-10-19T05:32:45.549Z,100571.50
2022-10-19T05:33:32.721Z,100573.19
2022-10-19T05:34:19.710Z,100576.72
2022-10-19T05:35:06.927Z,100566.94
2022-10-19T05:35:53.850Z,100571.31
2022-10-19T05:36:41.098Z,100569.63
2022-10-19T05:37:28.202Z,100569.47
2022-10-19T05:38:15.022Z,100569.47
2022-10-19T05:39:06.901Z,100575.22
2022-10-19T05:39:55.110Z,100582.69
2022-10-19T05:40:49.201Z,100576.37
2022-10-19T05:41:38.501Z,100570.13
2022-10-19T05:42:25.402Z,100574.78
2022-10-19T05:43:12.370Z,100578.84
2022-10-19T05:44:01.571Z,100576.53
2022-10-19T05:44:48.517Z,100578.19
2022-10-19T05:45:35.601Z,100573.97
2022-10-19T05:46:22.800Z,100580.44
2022-10-19T05:47:09.768Z,100583.31
2022-10-19T05:47:56.771Z,100578.19
2022-10-19T05:48:43.994Z,100588.19
2022-10-19T05:49:31.150Z,100581.09
2022-10-19T05:50:18.109Z,100581.44
2022-10-19T05:51:06.446Z,100577.53
2022-10-19T05:51:53.429Z,100580.91
2022-10-19T05:52:40.303Z,100583.59
2022-10-19T05:53:28.154Z,100579.72
2022-10-19T05:54:15.420Z,100584.94
2022-10-19T05:55:02.290Z,100578.53
2022-10-19T05:55:49.189Z,100579.53
2022-10-19T05:56:36.080Z,100581.56
2022-10-19T05:57:23.029Z,100580.56
2022-10-19T05:58:09.979Z,100585.31
2022-10-19T05:58:58.020Z,100591.06
2022-10-19T05:59:44.970Z,100591.72
2022-10-19T06:00:31.901Z,100586.31
2022-10-19T06:01:20.280Z,100585.31
2022-10-19T06:02:07.358Z,100590.34
2022-10-19T06:02:58.987Z,100583.25
2022-10-19T06:03:47.320Z,100588.84
2022-10-19T06:04:34.270Z,100589.31
2022-10-19T06:05:21.171Z,100577.81
2022-10-19T06:06:08.971Z,100588.28
2022-10-19T06:06:55.900Z,100586.59
2022-10-19T06:07:42.730Z,100586.22
2022-10-19T06:08:29.619Z,100588.94
2022-10-19T06:09:16.840Z,100592.47
2022-10-19T06:10:04.320Z,100584.72
2022-10-19T06:10:51.611Z,100589.31
2022-10-19T06:11:40.551Z,100593.69
2022-10-19T06:12:27.529Z,100587.56
2022-10-19T06:13:15.230Z,100590.75
2022-10-19T06:14:06.619Z,100590.75
2022-10-19T06:14:53.482Z,100581.59
2022-10-19T06:15:40.979Z,100590.28
2022-10-19T06:16:29.081Z,100596.53
2022-10-19T06:17:16.431Z,100597.34
2022-10-19T06:18:07.881Z,100595.53
2022-10-19T06:18:55.700Z,100595.31
2022-10-19T06:19:42.743Z,100601.22
2022-10-19T06:20:29.819Z,100599.34
2022-10-19T06:21:18.620Z,100602.72
2022-10-19T06:22:05.489Z,100605.44
2022-10-19T06:22:52.581Z,100604.44
2022-10-19T06:23:39.700Z,100598.31
2022-10-19T06:24:26.994Z,100603.84
2022-10-19T06:25:17.917Z,100596.53
2022-10-19T06:26:09.701Z,100603.34
2022-10-19T06:26:56.541Z,100599.75
2022-10-19T06:27:43.580Z,100604.13
2022-10-19T06:28:30.781Z,100611.25
2022-10-19T06:29:17.771Z,100604.56
2022-10-19T06:30:05.300Z,100598.28
2022-10-19T06:30:52.489Z,100607.06
2022-10-19T06:31:39.762Z,100604.00
2022-10-19T06:32:26.721Z,100607.25
2022-10-19T06:33:13.991Z,100606.69
2022-10-19T06:34:01.425Z,100606.87
2022-10-19T06:34:49.323Z,100606.69
2022-10-19T06:35:37.089Z,100611.25
2022-10-19T06:36:26.590Z,100613.50
2022-10-19T06:37:13.440Z,100617.72
2022-10-19T06:38:00.682Z,100622.91
2022-10-19T06:38:48.470Z,100617.28
2022-10-19T06:39:35.362Z,100620.37
2022-10-19T06:40:22.403Z,100618.31
2022-10-19T06:41:10.133Z,100619.44
2022-10-19T06:41:57.161Z,100619.25
2022-10-19T06:42:44.001Z,100625.00
2022-10-19T06:43:31.012Z,100625.47
2022-10-19T06:44:18.040Z,100628.38
2022-10-19T06:45:10.180Z,100631.84
2022-10-19T06:45:57.201Z,100631.84
2022-10-19T06:46:44.044Z,100632.97
2022-10-19T06:47:33.503Z,100630.25
2022-10-19T06:48:20.837Z,100632.53
2022-10-19T06:49:07.719Z,100633.66
2022-10-19T06:49:54.620Z,100637.41
2022-10-19T06:50:41.531Z,100623.13
2022-10-19T06:51:30.370Z,100634.16
2022-10-19T06:52:17.290Z,100637.22
2022-10-19T06:53:04.169Z,100639.19
2022-10-19T06:53:55.633Z,100636.28
2022-10-19T06:54:43.810Z,100638.00
2022-10-19T06:55:30.755Z,100635.56
2022-10-19T06:56:17.860Z,100629.28
2022-10-19T06:57:04.902Z,100636.41
2022-10-19T06:57:52.011Z,100638.19
2022-10-19T06:58:39.671Z,100640.16
2022-10-19T06:59:27.120Z,100640.63
2022-10-19T07:00:14.782Z,100638.62
2022-10-19T07:01:02.185Z,100637.03
2022-10-19T07:01:49.210Z,100640.59
2022-10-19T07:02:36.079Z,100640.97
2022-10-19T07:03:24.491Z,100639.22
2022-10-19T07:04:11.640Z,100644.37
2022-10-19T07:04:59.650Z,100637.81
2022-10-19T07:05:55.935Z,100636.13
2022-10-19T07:06:42.833Z,100637.22
2022-10-19T07:07:29.925Z,100648.31
2022-10-19T07:08:16.841Z,100640.53
2022-10-19T07:09:04.090Z,100645.12
2022-10-19T07:09:51.180Z,100645.59
2022-10-19T07:10:38.204Z,100651.03
2022-10-19T07:11:25.584Z,100652.50
2022-10-19T07:12:12.710Z,100641.91
2022-10-19T07:12:59.942Z,100641.53
2022-10-19T07:13:46.939Z,100647.41
2022-10-19T07:14:38.916Z,100644.03
2022-10-19T07:15:25.931Z,100652.19
2022-10-19T07:16:21.200Z,100640.75
2022-10-19T07:17:08.671Z,100641.69
2022-10-19T07:17:55.730Z,100642.78
2022-10-19T07:18:43.161Z,100640.63
2022-10-19T07:19:30.224Z,100647.00
2022-10-19T07:20:17.306Z,100644.66
2022-10-19T07:21:09.340Z,100642.88
2022-10-19T07:21:56.400Z,100646.25
2022-10-19T07:22:43.289Z,100647.06
2022-10-19T07:23:31.532Z,100643.53
2022-10-19T07:24:18.911Z,100646.50
2022-10-19T07:25:06.131Z,100646.50
2022-10-19T07:25:54.090Z,100647.31
2022-10-19T07:26:41.091Z,100648.38
2022-10-19T07:27:28.232Z,100647.97
2022-10-19T07:28:15.162Z,100650.97
2022-10-19T07:29:03.205Z,100648.25
2022-10-19T07:29:50.542Z,100651.16
2022-10-19T07:30:39.059Z,100645.72
2022-10-19T07:31:27.620Z,100653.69
2022-10-19T07:32:14.564Z,100659.38
2022-10-19T07:33:01.424Z,100657.91
2022-10-19T07:33:52.893Z,100649.53
2022-10-19T07:34:39.881Z,100655.62
2022-10-19T07:35:27.265Z,100659.75
2022-10-19T07:36:14.501Z,100659.62
2022-10-19T07:37:01.521Z,100651.53
2022-10-19T07:37:48.433Z,100652.41
2022-10-19T07:38:36.289Z,100651.53
2022-10-19T07:39:23.293Z,100650.75
2022-10-19T07:40:10.890Z,100650.19
2022-10-19T07:41:12.932Z,100649.16
2022-10-19T07:41:59.830Z,100649.16
2022-10-19T07:42:46.811Z,100641.63
2022-10-19T07:43:34.371Z,100643.09
2022-10-19T07:44:21.352Z,100642.53
2022-10-19T07:45:08.513Z,100641.94
2022-10-19T07:46:06.199Z,100633.56
2022-10-19T07:46:53.259Z,100643.81
2022-10-19T07:47:40.110Z,100647.19
2022-10-19T07:48:27.401Z,100653.69
2022-10-19T07:49:19.302Z,100652.19
2022-10-19T07:50:06.462Z,100641.94
2022-10-19T07:50:53.421Z,100644.50
2022-10-19T07:51:40.866Z,100651.88
2022-10-19T07:52:29.139Z,100640.63
2022-10-19T07:53:16.781Z,100650.75
2022-10-19T07:54:04.340Z,100643.28
2022-10-19T07:54:51.228Z,100646.69
2022-10-19T07:55:38.169Z,100659.66
2022-10-19T07:56:27.021Z,100647.91
2022-10-19T07:57:14.150Z,100656.94
2022-10-19T07:58:02.291Z,100653.16
2022-10-19T07:58:51.361Z,100654.59
2022-10-19T07:59:38.471Z,100666.41
2022-10-19T08:00:25.647Z,100665.34
2022-10-19T08:01:41.304Z,100657.53
2022-10-19T08:02:39.382Z,100657.09
2022-10-19T08:04:59.796Z,100658.00
2022-10-19T08:05:47.949Z,100654.47
2022-10-19T08:06:35.331Z,100663.56
2022-10-19T08:07:22.300Z,100659.97
2022-10-19T08:08:09.300Z,100647.09
2022-10-19T08:08:56.917Z,100663.63
2022-10-19T08:09:59.325Z,100658.56
2022-10-19T08:10:46.374Z,100658.50
2022-10-19T08:11:34.730Z,100663.25
2022-10-19T08:12:21.740Z,100659.31
2022-10-19T08:13:08.730Z,100654.37
2022-10-19T08:13:56.231Z,100648.75
2022-10-19T08:14:43.191Z,100663.63
2022-10-19T08:15:30.670Z,100660.50
2022-10-19T08:16:28.412Z,100652.97
2022-10-19T08:17:17.901Z,100665.31
2022-10-19T08:18:04.969Z,100655.94
2022-10-19T08:18:53.109Z,100648.94
2022-10-19T08:19:43.637Z,100664.25
2022-10-19T08:20:30.701Z,100663.00
2022-10-19T08:21:18.116Z,100657.09
2022-10-19T08:22:05.092Z,100661.50
2022-10-19T08:22:56.385Z,100650.66
2022-10-19T08:23:45.751Z,100658.22
2022-10-19T08:24:33.182Z,100657.81
2022-10-19T08:25:20.568Z,100654.50
2022-10-19T08:26:07.560Z,100660.34
2022-10-19T08:26:55.007Z,100648.00
2022-10-19T08:27:41.908Z,100644.22
2022-10-19T08:28:28.860Z,100647.59
2022-10-19T08:29:18.329Z,100641.28
2022-10-19T08:30:05.700Z,100656.81
2022-10-19T08:30:58.170Z,100654.31
2022-10-19T08:31:46.550Z,100644.31
2022-10-19T08:32:33.926Z,100653.13
2022-10-19T08:33:21.049Z,100648.94
2022-10-19T08:34:08.800Z,100649.75
2022-10-19T08:34:55.755Z,100642.88
2022-10-19T08:35:42.611Z,100647.50
2022-10-19T08:36:31.598Z,100646.25
2022-10-19T08:37:40.115Z,100649.41
2022-10-19T08:38:26.841Z,100651.09
2022-10-19T08:39:14.680Z,100645.62
2022-10-19T08:40:01.480Z,100639.16
2022-10-19T08:40:48.451Z,100645.66
2022-10-19T08:41:41.245Z,100653.28
2022-10-19T08:43:10.460Z,100643.63
2022-10-19T08:44:00.296Z,100640.50
2022-10-19T08:44:47.080Z,100641.34
2022-10-19T08:45:43.569Z,100655.59
2022-10-19T08:46:42.570Z,100647.03
2022-10-19T08:47:51.372Z,100658.97
2022-10-19T08:48:39.748Z,100660.66
2022-10-19T08:49:27.962Z,100656.88
2022-10-19T08:50:32.220Z,100650.34
2022-10-19T08:51:19.230Z,100655.59
2022-10-19T08:52:10.550Z,100647.22
2022-10-19T08:53:32.830Z,100653.31
2022-10-19T08:54:19.840Z,100652.25
2022-10-19T08:55:20.457Z,100656.03
2022-10-19T08:56:51.446Z,100647.03
2022-10-19T08:58:04.410Z,100650.56
2022-10-19T08:59:15.620Z,100652.88
2022-10-19T09:00:35.270Z,100648.31
2022-10-19T09:01:41.380Z,100656.69
2022-10-19T09:02:43.201Z,100653.50
2022-10-19T09:03:54.933Z,100649.75
2022-10-19T09:04:47.289Z,100645.16
2022-10-19T09:05:42.902Z,100651.25
2022-10-19T09:06:43.535Z,100649.34
2022-10-19T09:07:32.675Z,100654.81
2022-10-19T09:09:53.949Z,100651.66
2022-10-19T09:10:43.401Z,100648.50
2022-10-19T09:11:37.148Z,100644.31
2022-10-19T09:12:58.564Z,100639.69
2022-10-19T09:14:04.356Z,100632.38
2022-10-19T09:15:01.203Z,100637.37
2022-10-19T09:15:50.540Z,100643.69
2022-10-19T09:16:37.440Z,100644.75
2022-10-19T09:17:25.570Z,100644.94
2022-10-19T09:18:25.832Z,100643.47
2022-10-19T09:19:18.732Z,100635.50
2022-10-19T09:20:20.231Z,100638.62
2022-10-19T09:21:30.159Z,100644.09
2022-10-19T09:22:30.019Z,100640.53
2022-10-19T09:23:36.153Z,100652.94
2022-10-19T09:24:47.173Z,100651.44
2022-10-19T09:25:35.771Z,100643.03
2022-10-19T09:26:26.957Z,100649.16
2022-10-19T09:27:21.625Z,100646.00
2022-10-19T09:28:36.617Z,100647.41
2022-10-19T09:29:27.630Z,100640.66
2022-10-19T09:30:23.955Z,100638.75
2022-10-19T09:31:17.153Z,100642.91
2022-10-19T09:32:06.490Z,100646.53
2022-10-19T09:33:00.662Z,100649.28
2022-10-19T09:33:52.396Z,100653.87
2022-10-19T09:34:45.728Z,100647.41